<?xml version="1.0" encoding="UTF-8" standalone="no" ?>
<gpx xmlns="http://www.topografix.com/GPX/1/1" xmlns:xsi="http://www.w3.org/2001/XMLSchema-instance" xsi:schemaLocation="http://www.topografix.com/GPX/1/1 http://www.topografix.com/GPX/1/1/gpx.xsd" version="1.1" creator="VisuGPX - https://www.visugpx.com">
  <metadata>
    <name>Schlucht - Hohneck - Lac de La Lande- Chitelet- Collet</name>
  </metadata>
  <wpt lat="48.06364" lon="7.02233">
    <ele>1141</ele>
    <name><![CDATA[Parking]]></name>
  </wpt>
  <wpt lat="48.0299" lon="6.99906">
    <ele>1201</ele>
    <name><![CDATA[Prendre à droite et longer la]]></name>
  </wpt>
  <wpt lat="48.03359" lon="6.98274">
    <ele>1083</ele>
    <name><![CDATA[Prendre, le chemin (rondelles bleues)]]></name>
  </wpt>
  <wpt lat="48.0383" lon="6.99357">
    <ele>1089</ele>
    <name><![CDATA[Téleski du Chitelet]]></name>
  </wpt>
  <trk>
    <name><![CDATA[Schlucht - Hohneck - Lac de La Lande- Chitelet- Collet]]></name>
    <trkseg>
      <trkpt lat="48.06364" lon="7.02233">
        <ele>1141</ele>
        <time>2021-12-07T11:23:47+01:00</time>
      </trkpt>
      <trkpt lat="48.06335" lon="7.02231">
        <ele>1142</ele>
        <time>2021-12-07T11:23:52+01:00</time>
      </trkpt>
      <trkpt lat="48.06326" lon="7.0229">
        <ele>1147</ele>
        <time>2021-12-07T11:23:57+01:00</time>
      </trkpt>
      <trkpt lat="48.06302" lon="7.02321">
        <ele>1153</ele>
        <time>2021-12-07T11:24:02+01:00</time>
      </trkpt>
      <trkpt lat="48.06231" lon="7.02363">
        <ele>1166</ele>
        <time>2021-12-07T11:24:07+01:00</time>
      </trkpt>
      <trkpt lat="48.06172" lon="7.02375">
        <ele>1175</ele>
        <time>2021-12-07T11:24:12+01:00</time>
      </trkpt>
      <trkpt lat="48.06112" lon="7.02417">
        <ele>1186</ele>
        <time>2021-12-07T11:24:17+01:00</time>
      </trkpt>
      <trkpt lat="48.05949" lon="7.02372">
        <ele>1192</ele>
        <time>2021-12-07T11:24:22+01:00</time>
      </trkpt>
      <trkpt lat="48.05869" lon="7.02307">
        <ele>1206</ele>
        <time>2021-12-07T11:24:27+01:00</time>
      </trkpt>
      <trkpt lat="48.05815" lon="7.02266">
        <ele>1216</ele>
        <time>2021-12-07T11:24:32+01:00</time>
      </trkpt>
      <trkpt lat="48.05608" lon="7.0239">
        <ele>1242</ele>
        <time>2021-12-07T11:24:37+01:00</time>
      </trkpt>
      <trkpt lat="48.05563" lon="7.02236">
        <ele>1243</ele>
        <time>2021-12-07T11:24:42+01:00</time>
      </trkpt>
      <trkpt lat="48.05519" lon="7.02189">
        <ele>1246</ele>
        <time>2021-12-07T11:24:47+01:00</time>
      </trkpt>
      <trkpt lat="48.05389" lon="7.01977">
        <ele>1253</ele>
        <time>2021-12-07T11:24:52+01:00</time>
      </trkpt>
      <trkpt lat="48.05253" lon="7.01869">
        <ele>1244</ele>
        <time>2021-12-07T11:24:57+01:00</time>
      </trkpt>
      <trkpt lat="48.05179" lon="7.01752">
        <ele>1232</ele>
        <time>2021-12-07T11:25:02+01:00</time>
      </trkpt>
      <trkpt lat="48.05187" lon="7.01615">
        <ele>1236</ele>
        <time>2021-12-07T11:25:07+01:00</time>
      </trkpt>
      <trkpt lat="48.04962" lon="7.01534">
        <ele>1246</ele>
        <time>2021-12-07T11:25:12+01:00</time>
      </trkpt>
      <trkpt lat="48.04769" lon="7.01412">
        <ele>1265</ele>
        <time>2021-12-07T11:25:17+01:00</time>
      </trkpt>
      <trkpt lat="48.04478" lon="7.01222">
        <ele>1281</ele>
        <time>2021-12-07T11:25:22+01:00</time>
      </trkpt>
      <trkpt lat="48.04136" lon="7.01084">
        <ele>1293</ele>
        <time>2021-12-07T11:25:27+01:00</time>
      </trkpt>
      <trkpt lat="48.04102" lon="7.0105">
        <ele>1289</ele>
        <time>2021-12-07T11:25:32+01:00</time>
      </trkpt>
      <trkpt lat="48.03983" lon="7.0103">
        <ele>1279</ele>
        <time>2021-12-07T11:25:37+01:00</time>
      </trkpt>
      <trkpt lat="48.03827" lon="7.00975">
        <ele>1266</ele>
        <time>2021-12-07T11:25:42+01:00</time>
      </trkpt>
      <trkpt lat="48.03592" lon="7.00836">
        <ele>1249</ele>
        <time>2021-12-07T11:25:47+01:00</time>
      </trkpt>
      <trkpt lat="48.03587" lon="7.00785">
        <ele>1245</ele>
        <time>2021-12-07T11:25:52+01:00</time>
      </trkpt>
      <trkpt lat="48.03472" lon="7.00602">
        <ele>1251</ele>
        <time>2021-12-07T11:25:57+01:00</time>
      </trkpt>
      <trkpt lat="48.03442" lon="7.00466">
        <ele>1248</ele>
        <time>2021-12-07T11:26:02+01:00</time>
      </trkpt>
      <trkpt lat="48.03421" lon="7.00177">
        <ele>1240</ele>
        <time>2021-12-07T11:26:07+01:00</time>
      </trkpt>
      <trkpt lat="48.0341" lon="6.99986">
        <ele>1237</ele>
        <time>2021-12-07T11:26:12+01:00</time>
      </trkpt>
      <trkpt lat="48.03428" lon="6.99902">
        <ele>1232</ele>
        <time>2021-12-07T11:26:17+01:00</time>
      </trkpt>
      <trkpt lat="48.0335" lon="6.99503">
        <ele>1213</ele>
        <time>2021-12-07T11:26:22+01:00</time>
      </trkpt>
      <trkpt lat="48.03301" lon="6.99464">
        <ele>1210</ele>
        <time>2021-12-07T11:26:27+01:00</time>
      </trkpt>
      <trkpt lat="48.03155" lon="6.99405">
        <ele>1201</ele>
        <time>2021-12-07T11:26:32+01:00</time>
      </trkpt>
      <trkpt lat="48.03132" lon="6.99384">
        <ele>1196</ele>
        <time>2021-12-07T11:26:37+01:00</time>
      </trkpt>
      <trkpt lat="48.03094" lon="6.99394">
        <ele>1195</ele>
        <time>2021-12-07T11:26:42+01:00</time>
      </trkpt>
      <trkpt lat="48.03054" lon="6.99513">
        <ele>1199</ele>
        <time>2021-12-07T11:26:47+01:00</time>
      </trkpt>
      <trkpt lat="48.0299" lon="6.99906">
        <ele>1201</ele>
        <time>2021-12-07T11:26:52+01:00</time>
      </trkpt>
      <trkpt lat="48.02961" lon="6.9974">
        <ele>1194</ele>
        <time>2021-12-07T11:26:57+01:00</time>
      </trkpt>
      <trkpt lat="48.02964" lon="6.99487">
        <ele>1176</ele>
        <time>2021-12-07T11:27:02+01:00</time>
      </trkpt>
      <trkpt lat="48.02974" lon="6.99414">
        <ele>1167</ele>
        <time>2021-12-07T11:27:07+01:00</time>
      </trkpt>
      <trkpt lat="48.0299" lon="6.99244">
        <ele>1150</ele>
        <time>2021-12-07T11:27:12+01:00</time>
      </trkpt>
      <trkpt lat="48.02954" lon="6.99117">
        <ele>1133</ele>
        <time>2021-12-07T11:27:17+01:00</time>
      </trkpt>
      <trkpt lat="48.0297" lon="6.99061">
        <ele>1129</ele>
        <time>2021-12-07T11:27:22+01:00</time>
      </trkpt>
      <trkpt lat="48.03027" lon="6.9902">
        <ele>1130</ele>
        <time>2021-12-07T11:27:27+01:00</time>
      </trkpt>
      <trkpt lat="48.03073" lon="6.98967">
        <ele>1125</ele>
        <time>2021-12-07T11:27:32+01:00</time>
      </trkpt>
      <trkpt lat="48.03116" lon="6.98947">
        <ele>1128</ele>
        <time>2021-12-07T11:27:37+01:00</time>
      </trkpt>
      <trkpt lat="48.03122" lon="6.98878">
        <ele>1118</ele>
        <time>2021-12-07T11:27:42+01:00</time>
      </trkpt>
      <trkpt lat="48.03166" lon="6.98737">
        <ele>1107</ele>
        <time>2021-12-07T11:27:47+01:00</time>
      </trkpt>
      <trkpt lat="48.03237" lon="6.98572">
        <ele>1103</ele>
        <time>2021-12-07T11:27:52+01:00</time>
      </trkpt>
      <trkpt lat="48.03359" lon="6.98274">
        <ele>1083</ele>
        <time>2021-12-07T11:27:57+01:00</time>
      </trkpt>
      <trkpt lat="48.03385" lon="6.98184">
        <ele>1081</ele>
        <time>2021-12-07T11:28:02+01:00</time>
      </trkpt>
      <trkpt lat="48.03412" lon="6.9799">
        <ele>1071</ele>
        <time>2021-12-07T11:28:07+01:00</time>
      </trkpt>
      <trkpt lat="48.03461" lon="6.97883">
        <ele>1073</ele>
        <time>2021-12-07T11:28:12+01:00</time>
      </trkpt>
      <trkpt lat="48.03501" lon="6.97802">
        <ele>1070</ele>
        <time>2021-12-07T11:28:17+01:00</time>
      </trkpt>
      <trkpt lat="48.0355" lon="6.97825">
        <ele>1076</ele>
        <time>2021-12-07T11:28:22+01:00</time>
      </trkpt>
      <trkpt lat="48.03565" lon="6.97904">
        <ele>1085</ele>
        <time>2021-12-07T11:28:27+01:00</time>
      </trkpt>
      <trkpt lat="48.03602" lon="6.97945">
        <ele>1083</ele>
        <time>2021-12-07T11:28:32+01:00</time>
      </trkpt>
      <trkpt lat="48.03613" lon="6.98008">
        <ele>1085</ele>
        <time>2021-12-07T11:28:37+01:00</time>
      </trkpt>
      <trkpt lat="48.03618" lon="6.98141">
        <ele>1085</ele>
        <time>2021-12-07T11:28:42+01:00</time>
      </trkpt>
      <trkpt lat="48.03694" lon="6.98321">
        <ele>1081</ele>
        <time>2021-12-07T11:28:47+01:00</time>
      </trkpt>
      <trkpt lat="48.03718" lon="6.98421">
        <ele>1084</ele>
        <time>2021-12-07T11:28:52+01:00</time>
      </trkpt>
      <trkpt lat="48.0371" lon="6.98578">
        <ele>1091</ele>
        <time>2021-12-07T11:28:57+01:00</time>
      </trkpt>
      <trkpt lat="48.03711" lon="6.98722">
        <ele>1094</ele>
        <time>2021-12-07T11:29:02+01:00</time>
      </trkpt>
      <trkpt lat="48.03647" lon="6.98946">
        <ele>1108</ele>
        <time>2021-12-07T11:29:07+01:00</time>
      </trkpt>
      <trkpt lat="48.0365" lon="6.98975">
        <ele>1109</ele>
        <time>2021-12-07T11:29:12+01:00</time>
      </trkpt>
      <trkpt lat="48.03727" lon="6.99033">
        <ele>1101</ele>
        <time>2021-12-07T11:29:17+01:00</time>
      </trkpt>
      <trkpt lat="48.03778" lon="6.99129">
        <ele>1098</ele>
        <time>2021-12-07T11:29:22+01:00</time>
      </trkpt>
      <trkpt lat="48.0383" lon="6.99357">
        <ele>1089</ele>
        <time>2021-12-07T11:29:27+01:00</time>
      </trkpt>
      <trkpt lat="48.03822" lon="6.99488">
        <ele>1096</ele>
        <time>2021-12-07T11:29:32+01:00</time>
      </trkpt>
      <trkpt lat="48.03838" lon="6.99589">
        <ele>1100</ele>
        <time>2021-12-07T11:29:37+01:00</time>
      </trkpt>
      <trkpt lat="48.03875" lon="6.99645">
        <ele>1096</ele>
        <time>2021-12-07T11:29:42+01:00</time>
      </trkpt>
      <trkpt lat="48.03901" lon="6.99769">
        <ele>1100</ele>
        <time>2021-12-07T11:29:47+01:00</time>
      </trkpt>
      <trkpt lat="48.03869" lon="6.99922">
        <ele>1112</ele>
        <time>2021-12-07T11:29:52+01:00</time>
      </trkpt>
      <trkpt lat="48.03885" lon="6.99967">
        <ele>1117</ele>
        <time>2021-12-07T11:29:57+01:00</time>
      </trkpt>
      <trkpt lat="48.0399" lon="6.99919">
        <ele>1112</ele>
        <time>2021-12-07T11:30:02+01:00</time>
      </trkpt>
      <trkpt lat="48.04121" lon="6.99909">
        <ele>1118</ele>
        <time>2021-12-07T11:30:07+01:00</time>
      </trkpt>
      <trkpt lat="48.04212" lon="6.99864">
        <ele>1119</ele>
        <time>2021-12-07T11:30:12+01:00</time>
      </trkpt>
      <trkpt lat="48.04232" lon="6.9984">
        <ele>1116</ele>
        <time>2021-12-07T11:30:17+01:00</time>
      </trkpt>
      <trkpt lat="48.04298" lon="6.99859">
        <ele>1110</ele>
        <time>2021-12-07T11:30:22+01:00</time>
      </trkpt>
      <trkpt lat="48.04369" lon="6.99974">
        <ele>1115</ele>
        <time>2021-12-07T11:30:27+01:00</time>
      </trkpt>
      <trkpt lat="48.04418" lon="7.00054">
        <ele>1116</ele>
        <time>2021-12-07T11:30:32+01:00</time>
      </trkpt>
      <trkpt lat="48.04442" lon="7.00173">
        <ele>1122</ele>
        <time>2021-12-07T11:30:37+01:00</time>
      </trkpt>
      <trkpt lat="48.04449" lon="7.00249">
        <ele>1129</ele>
        <time>2021-12-07T11:30:42+01:00</time>
      </trkpt>
      <trkpt lat="48.04505" lon="7.00325">
        <ele>1121</ele>
        <time>2021-12-07T11:30:47+01:00</time>
      </trkpt>
      <trkpt lat="48.04546" lon="7.00372">
        <ele>1124</ele>
        <time>2021-12-07T11:30:52+01:00</time>
      </trkpt>
      <trkpt lat="48.0467" lon="7.00449">
        <ele>1123</ele>
        <time>2021-12-07T11:30:57+01:00</time>
      </trkpt>
      <trkpt lat="48.04793" lon="7.00467">
        <ele>1126</ele>
        <time>2021-12-07T11:31:02+01:00</time>
      </trkpt>
      <trkpt lat="48.0496" lon="7.00424">
        <ele>1106</ele>
        <time>2021-12-07T11:31:07+01:00</time>
      </trkpt>
      <trkpt lat="48.05056" lon="7.00464">
        <ele>1114</ele>
        <time>2021-12-07T11:31:12+01:00</time>
      </trkpt>
      <trkpt lat="48.05155" lon="7.00475">
        <ele>1116</ele>
        <time>2021-12-07T11:31:17+01:00</time>
      </trkpt>
      <trkpt lat="48.05336" lon="7.00553">
        <ele>1116</ele>
        <time>2021-12-07T11:31:22+01:00</time>
      </trkpt>
      <trkpt lat="48.05367" lon="7.00529">
        <ele>1113</ele>
        <time>2021-12-07T11:31:27+01:00</time>
      </trkpt>
      <trkpt lat="48.05415" lon="7.0048">
        <ele>1111</ele>
        <time>2021-12-07T11:31:32+01:00</time>
      </trkpt>
      <trkpt lat="48.05483" lon="7.00549">
        <ele>1116</ele>
        <time>2021-12-07T11:31:37+01:00</time>
      </trkpt>
      <trkpt lat="48.0562" lon="7.00775">
        <ele>1131</ele>
        <time>2021-12-07T11:31:42+01:00</time>
      </trkpt>
      <trkpt lat="48.05658" lon="7.00913">
        <ele>1140</ele>
        <time>2021-12-07T11:31:47+01:00</time>
      </trkpt>
      <trkpt lat="48.05678" lon="7.01139">
        <ele>1160</ele>
        <time>2021-12-07T11:31:52+01:00</time>
      </trkpt>
      <trkpt lat="48.05713" lon="7.01244">
        <ele>1170</ele>
        <time>2021-12-07T11:31:57+01:00</time>
      </trkpt>
      <trkpt lat="48.05763" lon="7.01284">
        <ele>1170</ele>
        <time>2021-12-07T11:32:02+01:00</time>
      </trkpt>
      <trkpt lat="48.05892" lon="7.01321">
        <ele>1165</ele>
        <time>2021-12-07T11:32:07+01:00</time>
      </trkpt>
      <trkpt lat="48.06103" lon="7.0149">
        <ele>1160</ele>
        <time>2021-12-07T11:32:12+01:00</time>
      </trkpt>
      <trkpt lat="48.06197" lon="7.01626">
        <ele>1149</ele>
        <time>2021-12-07T11:32:17+01:00</time>
      </trkpt>
      <trkpt lat="48.0622" lon="7.017">
        <ele>1147</ele>
        <time>2021-12-07T11:32:22+01:00</time>
      </trkpt>
      <trkpt lat="48.06232" lon="7.01851">
        <ele>1146</ele>
        <time>2021-12-07T11:32:27+01:00</time>
      </trkpt>
      <trkpt lat="48.06243" lon="7.01958">
        <ele>1141</ele>
        <time>2021-12-07T11:32:32+01:00</time>
      </trkpt>
      <trkpt lat="48.06241" lon="7.02018">
        <ele>1141</ele>
        <time>2021-12-07T11:32:37+01:00</time>
      </trkpt>
      <trkpt lat="48.06222" lon="7.02074">
        <ele>1144</ele>
        <time>2021-12-07T11:32:42+01:00</time>
      </trkpt>
      <trkpt lat="48.06248" lon="7.02106">
        <ele>1142</ele>
        <time>2021-12-07T11:32:47+01:00</time>
      </trkpt>
      <trkpt lat="48.06279" lon="7.02119">
        <ele>1139</ele>
        <time>2021-12-07T11:32:52+01:00</time>
      </trkpt>
      <trkpt lat="48.06313" lon="7.02208">
        <ele>1143</ele>
        <time>2021-12-07T11:32:57+01:00</time>
      </trkpt>
      <trkpt lat="48.06364" lon="7.02232">
        <ele>1141</ele>
        <time>2021-12-07T11:33:02+01:00</time>
      </trkpt>
    </trkseg>
  </trk>
</gpx>